sensor_id;sensor_type;location;lat;lon;timestamp;pressure;altitude;pressure_sealevel;temperature;humidity
52957;BME280;38819;42.692;23.342;2023-06-24T00:00:47;95266.75;;;25.24;58.52
52957;BME280;38819;42.692;23.342;2023-06-24T00:03:12;95266.34;;;25.26;58.70
52957;BME280;38819;42.692;23.342;2023-06-24T00:05:42;95265.22;;;25.30;58.42
52957;BME280;38819;42.692;23.342;2023-06-24T00:08:08;95269.84;;;25.15;58.64
52957;BME280;38819;42.692;23.342;2023-06-24T00:10:33;95275.75;;;25.14;58.89
52957;BME280;38819;42.692;23.342;2023-06-24T00:12:58;95262.28;;;25.05;58.77
52957;BME280;38819;42.692;23.342;2023-06-24T00:15:26;95266.66;;;25.10;59.09
52957;BME280;38819;42.692;23.342;2023-06-24T00:17:51;95268.59;;;25.06;59.07
52957;BME280;38819;42.692;23.342;2023-06-24T00:20:17;95261.91;;;25.07;59.10
52957;BME280;38819;42.692;23.342;2023-06-24T00:22:43;95266.25;;;25.04;59.26
52957;BME280;38819;42.692;23.342;2023-06-24T00:25:09;95270.97;;;25.07;58.98
52957;BME280;38819;42.692;23.342;2023-06-24T00:27:34;95263.44;;;25.01;59.22
52957;BME280;38819;42.692;23.342;2023-06-24T00:29:59;95271.28;;;24.95;59.18
52957;BME280;38819;42.692;23.342;2023-06-24T00:32:25;95269.69;;;24.90;59.03
52957;BME280;38819;42.692;23.342;2023-06-24T00:34:50;95272.81;;;24.89;59.36
52957;BME280;38819;42.692;23.342;2023-06-24T00:37:15;95262.50;;;24.82;59.35
52957;BME280;38819;42.692;23.342;2023-06-24T00:39:41;95270.41;;;24.80;59.40
52957;BME280;38819;42.692;23.342;2023-06-24T00:42:06;95276.31;;;24.78;59.79
52957;BME280;38819;42.692;23.342;2023-06-24T00:44:31;95281.06;;;24.82;59.70
52957;BME280;38819;42.692;23.342;2023-06-24T00:46:57;95270.34;;;24.73;59.96
52957;BME280;38819;42.692;23.342;2023-06-24T00:49:22;95269.91;;;24.67;60.28
52957;BME280;38819;42.692;23.342;2023-06-24T00:51:47;95269.09;;;24.63;60.51
52957;BME280;38819;42.692;23.342;2023-06-24T00:54:16;95267.09;;;24.60;60.53
52957;BME280;38819;42.692;23.342;2023-06-24T00:56:41;95265.09;;;24.57;60.30
52957;BME280;38819;42.692;23.342;2023-06-24T00:59:07;95264.31;;;24.56;60.16
52957;BME280;38819;42.692;23.342;2023-06-24T01:01:33;95258.34;;;24.54;60.64
52957;BME280;38819;42.692;23.342;2023-06-24T01:04:00;95252.88;;;24.58;60.51
52957;BME280;38819;42.692;23.342;2023-06-24T01:06:26;95254.38;;;24.52;60.63
52957;BME280;38819;42.692;23.342;2023-06-24T01:08:54;95256.31;;;24.48;60.64
52957;BME280;38819;42.692;23.342;2023-06-24T01:11:21;95244.41;;;24.40;60.78
52957;BME280;38819;42.692;23.342;2023-06-24T01:13:47;95252.66;;;24.36;60.99
52957;BME280;38819;42.692;23.342;2023-06-24T01:16:14;95253.03;;;24.35;61.08
52957;BME280;38819;42.692;23.342;2023-06-24T01:18:43;95247.50;;;24.31;61.39
52957;BME280;38819;42.692;23.342;2023-06-24T01:26:19;95247.09;;;24.29;61.47
52957;BME280;38819;42.692;23.342;2023-06-24T01:36:34;95254.00;;;24.12;62.25
52957;BME280;38819;42.692;23.342;2023-06-24T01:39:02;95258.28;;;24.06;62.31
52957;BME280;38819;42.692;23.342;2023-06-24T01:41:30;95254.78;;;24.09;62.54
52957;BME280;38819;42.692;23.342;2023-06-24T01:43:56;95259.50;;;24.09;62.61
52957;BME280;38819;42.692;23.342;2023-06-24T01:46:23;95255.94;;;24.08;62.29
52957;BME280;38819;42.692;23.342;2023-06-24T01:48:50;95277.59;;;24.06;62.31
52957;BME280;38819;42.692;23.342;2023-06-24T01:51:20;95289.06;;;24.08;62.29
52957;BME280;38819;42.692;23.342;2023-06-24T01:53:48;95288.22;;;24.04;62.43
52957;BME280;38819;42.692;23.342;2023-06-24T01:56:15;95282.31;;;24.05;62.37
52957;BME280;38819;42.692;23.342;2023-06-24T01:58:40;95284.66;;;24.03;63.22
52957;BME280;38819;42.692;23.342;2023-06-24T02:01:07;95282.19;;;23.91;63.55
52957;BME280;38819;42.692;23.342;2023-06-24T02:03:33;95288.53;;;23.99;63.52
52957;BME280;38819;42.692;23.342;2023-06-24T02:05:59;95292.84;;;23.93;63.47
52957;BME280;38819;42.692;23.342;2023-06-24T02:08:26;95297.16;;;23.94;63.77
52957;BME280;38819;42.692;23.342;2023-06-24T02:10:54;95300.69;;;23.91;63.91
52957;BME280;38819;42.692;23.342;2023-06-24T02:13:20;95303.34;;;23.83;64.23
52957;BME280;38819;42.692;23.342;2023-06-24T02:15:46;95299.25;;;23.74;64.83
52957;BME280;38819;42.692;23.342;2023-06-24T02:18:12;95296.88;;;23.72;65.15
52957;BME280;38819;42.692;23.342;2023-06-24T02:20:40;95293.75;;;23.74;64.95
52957;BME280;38819;42.692;23.342;2023-06-24T02:23:07;95297.66;;;23.69;65.39
52957;BME280;38819;42.692;23.342;2023-06-24T02:25:34;95301.53;;;23.64;65.33
52957;BME280;38819;42.692;23.342;2023-06-24T02:28:01;95304.13;;;23.54;65.90
52957;BME280;38819;42.692;23.342;2023-06-24T02:30:26;95315.16;;;23.54;66.06
52957;BME280;38819;42.692;23.342;2023-06-24T02:32:52;95316.75;;;23.55;66.28
52957;BME280;38819;42.692;23.342;2023-06-24T02:35:17;95326.16;;;23.50;66.43
52957;BME280;38819;42.692;23.342;2023-06-24T02:37:43;95329.56;;;23.40;66.86
52957;BME280;38819;42.692;23.342;2023-06-24T02:40:08;95339.78;;;23.39;66.97
52957;BME280;38819;42.692;23.342;2023-06-24T02:42:35;95347.56;;;23.34;67.07
52957;BME280;38819;42.692;23.342;2023-06-24T02:45:00;95346.50;;;23.42;67.09
52957;BME280;38819;42.692;23.342;2023-06-24T02:47:26;95341.28;;;23.33;67.40
52957;BME280;38819;42.692;23.342;2023-06-24T02:49:52;95331.81;;;23.30;67.85
52957;BME280;38819;42.692;23.342;2023-06-24T02:52:18;95340.06;;;23.30;67.69
52957;BME280;38819;42.692;23.342;2023-06-24T02:54:44;95335.34;;;23.31;67.89
52957;BME280;38819;42.692;23.342;2023-06-24T02:57:10;95351.03;;;23.27;67.85
52957;BME280;38819;42.692;23.342;2023-06-24T02:59:36;95354.47;;;23.20;68.46
52957;BME280;38819;42.692;23.342;2023-06-24T03:02:01;95353.31;;;23.21;68.30
52957;BME280;38819;42.692;23.342;2023-06-24T03:04:28;95361.91;;;23.16;68.71
52957;BME280;38819;42.692;23.342;2023-06-24T03:06:54;95356.13;;;23.25;68.31
52957;BME280;38819;42.692;23.342;2023-06-24T03:09:19;95347.56;;;23.34;68.02
52957;BME280;38819;42.692;23.342;2023-06-24T03:11:45;95356.06;;;23.48;67.49
52957;BME280;38819;42.692;23.342;2023-06-24T03:14:10;95357.75;;;23.56;67.09
52957;BME280;38819;42.692;23.342;2023-06-24T03:16:36;95353.59;;;23.70;66.76
52957;BME280;38819;42.692;23.342;2023-06-24T03:19:03;95353.41;;;23.85;66.69
52957;BME280;38819;42.692;23.342;2023-06-24T03:21:28;95353.19;;;23.98;66.18
52957;BME280;38819;42.692;23.342;2023-06-24T03:23:54;95349.78;;;24.12;65.65
52957;BME280;38819;42.692;23.342;2023-06-24T03:26:19;95355.00;;;24.20;65.74
52957;BME280;38819;42.692;23.342;2023-06-24T03:28:44;95359.53;;;24.36;64.91
52957;BME280;38819;42.692;23.342;2023-06-24T03:31:09;95366.41;;;24.53;64.49
52957;BME280;38819;42.692;23.342;2023-06-24T03:33:35;95369.69;;;24.66;63.93
52957;BME280;38819;42.692;23.342;2023-06-24T03:36:00;95376.47;;;24.72;63.78
52957;BME280;38819;42.692;23.342;2023-06-24T03:38:25;95384.31;;;24.66;63.46
52957;BME280;38819;42.692;23.342;2023-06-24T03:40:52;95379.94;;;24.65;63.59
52957;BME280;38819;42.692;23.342;2023-06-24T03:43:18;95382.03;;;24.79;63.12
52957;BME280;38819;42.692;23.342;2023-06-24T03:45:43;95388.38;;;24.80;63.22
52957;BME280;38819;42.692;23.342;2023-06-24T03:48:08;95393.09;;;24.79;63.51
52957;BME280;38819;42.692;23.342;2023-06-24T03:50:34;95389.91;;;24.73;63.58
52957;BME280;38819;42.692;23.342;2023-06-24T03:52:59;95386.69;;;24.68;64.09
52957;BME280;38819;42.692;23.342;2023-06-24T03:55:24;95389.09;;;24.69;64.05
52957;BME280;38819;42.692;23.342;2023-06-24T03:57:50;95392.47;;;24.55;64.29
52957;BME280;38819;42.692;23.342;2023-06-24T04:00:15;95389.75;;;24.59;64.47
52957;BME280;38819;42.692;23.342;2023-06-24T04:02:42;95394.38;;;24.51;65.02
52957;BME280;38819;42.692;23.342;2023-06-24T04:05:08;95384.50;;;24.50;65.20
52957;BME280;38819;42.692;23.342;2023-06-24T04:07:33;95394.34;;;24.48;64.86
52957;BME280;38819;42.692;23.342;2023-06-24T04:09:59;95393.97;;;24.49;65.03
52957;BME280;38819;42.692;23.342;2023-06-24T04:12:24;95395.47;;;24.43;65.36
52957;BME280;38819;42.692;23.342;2023-06-24T04:14:49;95397.81;;;24.37;65.21
52957;BME280;38819;42.692;23.342;2023-06-24T04:17:15;95393.88;;;24.42;64.68
52957;BME280;38819;42.692;23.342;2023-06-24T04:19:40;95383.72;;;24.50;64.54
52957;BME280;38819;42.692;23.342;2023-06-24T04:22:06;95373.06;;;24.48;64.74
52957;BME280;38819;42.692;23.342;2023-06-24T04:24:31;95377.13;;;24.58;64.63
52957;BME280;38819;42.692;23.342;2023-06-24T04:26:57;95379.91;;;24.62;64.62
52957;BME280;38819;42.692;23.342;2023-06-24T04:29:22;95377.94;;;24.62;64.41
52957;BME280;38819;42.692;23.342;2023-06-24T04:31:48;95372.84;;;24.64;64.01
52957;BME280;38819;42.692;23.342;2023-06-24T04:34:13;95376.44;;;24.68;63.97
52957;BME280;38819;42.692;23.342;2023-06-24T04:36:38;95366.63;;;24.74;63.88
52957;BME280;38819;42.692;23.342;2023-06-24T04:39:04;95384.00;;;24.75;64.30
52957;BME280;38819;42.692;23.342;2023-06-24T04:41:29;95382.16;;;24.90;63.66
52957;BME280;38819;42.692;23.342;2023-06-24T04:43:55;95380.25;;;24.98;63.35
52957;BME280;38819;42.692;23.342;2023-06-24T04:46:20;95383.84;;;25.02;63.38
52957;BME280;38819;42.692;23.342;2023-06-24T04:48:46;95385.06;;;25.08;63.49
52957;BME280;38819;42.692;23.342;2023-06-24T04:51:12;95389.91;;;25.18;63.37
52957;BME280;38819;42.692;23.342;2023-06-24T04:53:37;95393.06;;;25.20;63.01
52957;BME280;38819;42.692;23.342;2023-06-24T04:56:02;95396.25;;;25.26;62.79
52957;BME280;38819;42.692;23.342;2023-06-24T04:58:28;95399.00;;;25.26;62.46
52957;BME280;38819;42.692;23.342;2023-06-24T05:00:53;95391.56;;;25.26;62.54
52957;BME280;38819;42.692;23.342;2023-06-24T05:03:18;95388.25;;;25.10;62.36
52957;BME280;38819;42.692;23.342;2023-06-24T05:05:44;95386.06;;;24.85;63.08
52957;BME280;38819;42.692;23.342;2023-06-24T05:08:09;95382.88;;;24.83;63.69
52957;BME280;38819;42.692;23.342;2023-06-24T05:10:34;95384.06;;;24.82;63.55
52957;BME280;38819;42.692;23.342;2023-06-24T05:13:00;95389.66;;;24.89;63.38
52957;BME280;38819;42.692;23.342;2023-06-24T05:15:25;95382.56;;;24.92;63.58
52957;BME280;38819;42.692;23.342;2023-06-24T05:17:50;95384.97;;;24.97;63.10
52957;BME280;38819;42.692;23.342;2023-06-24T05:20:15;95379.47;;;25.01;62.87
52957;BME280;38819;42.692;23.342;2023-06-24T05:22:42;95372.81;;;25.05;62.68
52957;BME280;38819;42.692;23.342;2023-06-24T05:25:08;95370.53;;;25.14;62.54
52957;BME280;38819;42.692;23.342;2023-06-24T05:27:33;95364.63;;;25.20;62.33
52957;BME280;38819;42.692;23.342;2023-06-24T05:29:58;95373.72;;;25.20;62.28
52957;BME280;38819;42.692;23.342;2023-06-24T05:32:24;95374.94;;;25.23;61.36
52957;BME280;38819;42.692;23.342;2023-06-24T05:34:49;95370.25;;;25.30;60.72
52957;BME280;38819;42.692;23.342;2023-06-24T05:37:14;95379.38;;;25.35;60.65
52957;BME280;38819;42.692;23.342;2023-06-24T05:39:40;95376.19;;;25.32;60.66
52957;BME280;38819;42.692;23.342;2023-06-24T05:42:05;95375.03;;;25.33;60.60
52957;BME280;38819;42.692;23.342;2023-06-24T05:44:30;95372.31;;;25.41;59.90
52957;BME280;38819;42.692;23.342;2023-06-24T05:46:56;95375.94;;;25.56;59.38
52957;BME280;38819;42.692;23.342;2023-06-24T05:49:21;95384.19;;;25.45;60.19
52957;BME280;38819;42.692;23.342;2023-06-24T05:51:47;95377.00;;;25.33;61.14
52957;BME280;38819;42.692;23.342;2023-06-24T05:54:12;95370.88;;;25.09;62.00
52957;BME280;38819;42.692;23.342;2023-06-24T05:56:37;95365.00;;;25.14;62.13
52957;BME280;38819;42.692;23.342;2023-06-24T05:59:02;95358.59;;;25.03;62.69
52957;BME280;38819;42.692;23.342;2023-06-24T06:01:28;95367.63;;;25.00;62.38
52957;BME280;38819;42.692;23.342;2023-06-24T06:03:54;95372.75;;;24.98;62.55
52957;BME280;38819;42.692;23.342;2023-06-24T06:06:19;95364.75;;;24.86;61.73
52957;BME280;38819;42.692;23.342;2023-06-24T06:08:44;95364.25;;;24.73;62.99
52957;BME280;38819;42.692;23.342;2023-06-24T06:11:09;95355.78;;;24.55;62.16
52957;BME280;38819;42.692;23.342;2023-06-24T06:13:35;95355.78;;;24.55;62.35
52957;BME280;38819;42.692;23.342;2023-06-24T06:16:00;95358.22;;;24.60;62.29
52957;BME280;38819;42.692;23.342;2023-06-24T06:18:25;95362.31;;;24.77;61.82
52957;BME280;38819;42.692;23.342;2023-06-24T06:20:51;95367.03;;;24.76;61.99
52957;BME280;38819;42.692;23.342;2023-06-24T06:23:16;95363.56;;;24.83;61.27
52957;BME280;38819;42.692;23.342;2023-06-24T06:25:41;95355.16;;;24.72;62.29
52957;BME280;38819;42.692;23.342;2023-06-24T06:28:07;95360.38;;;24.81;61.84
52957;BME280;38819;42.692;23.342;2023-06-24T06:30:32;95355.22;;;24.76;62.25
52957;BME280;38819;42.692;23.342;2023-06-24T06:32:57;95363.59;;;24.90;61.34
52957;BME280;38819;42.692;23.342;2023-06-24T06:35:23;95363.97;;;24.89;62.11
52957;BME280;38819;42.692;23.342;2023-06-24T06:37:48;95364.50;;;25.02;61.99
52957;BME280;38819;42.692;23.342;2023-06-24T06:40:21;95356.72;;;25.18;61.19
52957;BME280;38819;42.692;23.342;2023-06-24T06:42:46;95371.06;;;25.31;60.60
52957;BME280;38819;42.692;23.342;2023-06-24T06:45:11;95372.63;;;25.32;60.76
52957;BME280;38819;42.692;23.342;2023-06-24T06:47:37;95375.84;;;25.38;60.54
52957;BME280;38819;42.692;23.342;2023-06-24T06:50:02;95369.63;;;25.51;60.39
52957;BME280;38819;42.692;23.342;2023-06-24T06:52:28;95369.16;;;25.46;60.43
52957;BME280;38819;42.692;23.342;2023-06-24T06:54:53;95370.34;;;25.41;60.55
52957;BME280;38819;42.692;23.342;2023-06-24T06:57:19;95368.03;;;25.54;60.03
52957;BME280;38819;42.692;23.342;2023-06-24T06:59:44;95371.28;;;25.70;59.57
52957;BME280;38819;42.692;23.342;2023-06-24T07:02:09;95366.63;;;25.85;59.53
52957;BME280;38819;42.692;23.342;2023-06-24T07:04:34;95370.28;;;26.00;58.91
52957;BME280;38819;42.692;23.342;2023-06-24T07:07:00;95367.56;;;26.11;59.41
52957;BME280;38819;42.692;23.342;2023-06-24T07:09:25;95368.00;;;26.20;58.75
52957;BME280;38819;42.692;23.342;2023-06-24T07:11:50;95370.41;;;26.33;58.76
52957;BME280;38819;42.692;23.342;2023-06-24T07:14:16;95366.81;;;26.21;58.93
52957;BME280;38819;42.692;23.342;2023-06-24T07:16:41;95367.91;;;26.02;58.91
52957;BME280;38819;42.692;23.342;2023-06-24T07:19:06;95369.78;;;25.87;59.38
52957;BME280;38819;42.692;23.342;2023-06-24T07:21:31;95375.78;;;25.93;58.93
52957;BME280;38819;42.692;23.342;2023-06-24T07:23:57;95375.38;;;25.91;59.59
52957;BME280;38819;42.692;23.342;2023-06-24T07:26:22;95366.22;;;25.83;59.25
52957;BME280;38819;42.692;23.342;2023-06-24T07:28:47;95365.06;;;25.84;58.92
52957;BME280;38819;42.692;23.342;2023-06-24T07:31:13;95363.84;;;25.78;58.94
52957;BME280;38819;42.692;23.342;2023-06-24T07:33:38;95363.50;;;25.94;58.64
52957;BME280;38819;42.692;23.342;2023-06-24T07:36:03;95362.00;;;26.04;58.93
52957;BME280;38819;42.692;23.342;2023-06-24T07:38:29;95360.00;;;26.01;59.06
52957;BME280;38819;42.692;23.342;2023-06-24T07:40:55;95364.38;;;26.02;58.03
52957;BME280;38819;42.692;23.342;2023-06-24T07:43:20;95362.81;;;26.12;59.32
52957;BME280;38819;42.692;23.342;2023-06-24T07:45:45;95359.75;;;26.31;58.24
52957;BME280;38819;42.692;23.342;2023-06-24T07:48:11;95355.78;;;26.36;57.80
52957;BME280;38819;42.692;23.342;2023-06-24T07:50:37;95363.69;;;26.30;57.47
52957;BME280;38819;42.692;23.342;2023-06-24T07:53:03;95362.84;;;26.26;58.60
52957;BME280;38819;42.692;23.342;2023-06-24T07:55:28;95366.03;;;26.24;58.07
52957;BME280;38819;42.692;23.342;2023-06-24T07:57:53;95358.13;;;26.23;58.23
52957;BME280;38819;42.692;23.342;2023-06-24T08:00:19;95364.44;;;26.27;59.27
52957;BME280;38819;42.692;23.342;2023-06-24T08:02:44;95370.38;;;26.25;59.30
52957;BME280;38819;42.692;23.342;2023-06-24T08:05:09;95362.06;;;26.18;59.25
52957;BME280;38819;42.692;23.342;2023-06-24T08:07:35;95366.81;;;26.21;59.02
52957;BME280;38819;42.692;23.342;2023-06-24T08:10:00;95371.19;;;26.33;59.51
52957;BME280;38819;42.692;23.342;2023-06-24T08:12:26;95372.00;;;26.44;59.05
52957;BME280;38819;42.692;23.342;2023-06-24T08:14:51;95358.59;;;26.57;58.08
52957;BME280;38819;42.692;23.342;2023-06-24T08:17:16;95362.56;;;26.60;59.18
52957;BME280;38819;42.692;23.342;2023-06-24T08:19:42;95360.22;;;26.69;58.54
52957;BME280;38819;42.692;23.342;2023-06-24T08:22:07;95355.88;;;26.83;58.50
52957;BME280;38819;42.692;23.342;2023-06-24T08:24:33;95360.25;;;26.94;59.31
52957;BME280;38819;42.692;23.342;2023-06-24T08:26:58;95357.47;;;27.05;58.67
52957;BME280;38819;42.692;23.342;2023-06-24T08:29:23;95354.69;;;27.20;57.33
52957;BME280;38819;42.692;23.342;2023-06-24T08:31:49;95362.19;;;27.26;56.83
52957;BME280;38819;42.692;23.342;2023-06-24T08:34:14;95353.50;;;27.17;55.70
52957;BME280;38819;42.692;23.342;2023-06-24T08:36:39;95357.06;;;27.17;55.74
52957;BME280;38819;42.692;23.342;2023-06-24T08:39:05;95350.34;;;27.15;55.29
52957;BME280;38819;42.692;23.342;2023-06-24T08:41:30;95350.34;;;27.15;55.62
52957;BME280;38819;42.692;23.342;2023-06-24T08:43:55;95348.34;;;27.23;55.05
52957;BME280;38819;42.692;23.342;2023-06-24T08:46:21;95340.47;;;27.32;55.28
52957;BME280;38819;42.692;23.342;2023-06-24T08:48:48;95328.13;;;27.47;56.19
52957;BME280;38819;42.692;23.342;2023-06-24T08:51:13;95337.63;;;27.57;56.28
52957;BME280;38819;42.692;23.342;2023-06-24T08:53:41;95324.50;;;27.65;56.23
52957;BME280;38819;42.692;23.342;2023-06-24T08:56:07;95326.47;;;27.71;55.09
52957;BME280;38819;42.692;23.342;2023-06-24T08:58:33;95327.25;;;27.83;55.77
52957;BME280;38819;42.692;23.342;2023-06-24T09:00:59;95328.06;;;27.76;54.50
52957;BME280;38819;42.692;23.342;2023-06-24T09:03:24;95324.47;;;27.79;54.78
52957;BME280;38819;42.692;23.342;2023-06-24T09:05:50;95327.25;;;27.79;55.50
52957;BME280;38819;42.692;23.342;2023-06-24T09:08:16;95322.06;;;27.85;55.42
52957;BME280;38819;42.692;23.342;2023-06-24T09:10:41;95324.03;;;27.91;54.81
52957;BME280;38819;42.692;23.342;2023-06-24T09:13:07;95325.63;;;28.03;54.18
52957;BME280;38819;42.692;23.342;2023-06-24T09:15:33;95320.13;;;27.82;54.06
52957;BME280;38819;42.692;23.342;2023-06-24T09:17:58;95320.13;;;27.82;53.29
52957;BME280;38819;42.692;23.342;2023-06-24T09:20:25;95317.69;;;27.91;52.87
52957;BME280;38819;42.692;23.342;2023-06-24T09:22:51;95320.88;;;27.86;53.34
52957;BME280;38819;42.692;23.342;2023-06-24T09:25:17;95320.06;;;27.96;53.27
52957;BME280;38819;42.692;23.342;2023-06-24T09:27:46;95328.38;;;28.00;54.51
52957;BME280;38819;42.692;23.342;2023-06-24T09:30:19;95324.41;;;28.04;53.54
52957;BME280;38819;42.692;23.342;2023-06-24T09:32:45;95321.25;;;28.02;52.84
52957;BME280;38819;42.692;23.342;2023-06-24T09:35:10;95319.63;;;28.08;52.46
52957;BME280;38819;42.692;23.342;2023-06-24T09:37:36;95327.16;;;28.15;52.41
52957;BME280;38819;42.692;23.342;2023-06-24T09:40:01;95323.13;;;28.27;52.44
52957;BME280;38819;42.692;23.342;2023-06-24T09:42:30;95326.63;;;28.35;53.04
52957;BME280;38819;42.692;23.342;2023-06-24T09:44:55;95325.00;;;28.41;52.99
52957;BME280;38819;42.692;23.342;2023-06-24T09:47:21;95321.75;;;28.53;52.20
52957;BME280;38819;42.692;23.342;2023-06-24T09:49:50;95329.31;;;28.56;51.79
52957;BME280;38819;42.692;23.342;2023-06-24T09:52:15;95328.88;;;28.61;52.31
52957;BME280;38819;42.692;23.342;2023-06-24T09:54:41;95312.16;;;28.69;51.38
52957;BME280;38819;42.692;23.342;2023-06-24T09:57:08;95311.78;;;28.63;50.59
52957;BME280;38819;42.692;23.342;2023-06-24T09:59:35;95320.19;;;28.52;51.04
52957;BME280;38819;42.692;23.342;2023-06-24T10:02:00;95311.03;;;28.52;51.37
52957;BME280;38819;42.692;23.342;2023-06-24T10:04:27;95301.53;;;28.49;52.11
52957;BME280;38819;42.692;23.342;2023-06-24T10:06:52;95302.28;;;28.64;51.25
52957;BME280;38819;42.692;23.342;2023-06-24T10:09:18;95301.00;;;28.76;51.86
52957;BME280;38819;42.692;23.342;2023-06-24T10:11:45;95297.69;;;28.88;52.00
52957;BME280;38819;42.692;23.342;2023-06-24T10:14:10;95301.72;;;28.83;52.02
52957;BME280;38819;42.692;23.342;2023-06-24T10:16:35;95291.31;;;28.91;51.84
52957;BME280;38819;42.692;23.342;2023-06-24T10:19:02;95286.91;;;28.97;51.00
52957;BME280;38819;42.692;23.342;2023-06-24T10:24:12;95272.28;;;28.90;51.09
52957;BME280;38819;42.692;23.342;2023-06-24T10:26:39;95270.34;;;28.83;50.96
52957;BME280;38819;42.692;23.342;2023-06-24T10:34:19;95259.84;;;29.01;51.26
52957;BME280;38819;42.692;23.342;2023-06-24T10:37:01;95258.75;;;28.95;49.41
52957;BME280;38819;42.692;23.342;2023-06-24T10:47:24;95234.13;;;28.94;48.03
52957;BME280;38819;42.692;23.342;2023-06-24T10:49:49;95226.13;;;28.99;47.76
52957;BME280;38819;42.692;23.342;2023-06-24T10:52:16;95219.78;;;28.99;48.10
52957;BME280;38819;42.692;23.342;2023-06-24T10:54:42;95215.31;;;29.05;47.17
52957;BME280;38819;42.692;23.342;2023-06-24T10:57:09;95218.09;;;29.09;47.90
52957;BME280;38819;42.692;23.342;2023-06-24T10:59:57;95210.13;;;29.11;46.72
52957;BME280;38819;42.692;23.342;2023-06-24T11:02:22;95212.38;;;29.23;46.42
52957;BME280;38819;42.692;23.342;2023-06-24T11:04:48;95209.56;;;29.27;46.32
52957;BME280;38819;42.692;23.342;2023-06-24T11:07:14;95207.19;;;29.29;45.52
52957;BME280;38819;42.692;23.342;2023-06-24T11:09:40;95201.06;;;29.41;45.73
52957;BME280;38819;42.692;23.342;2023-06-24T11:12:07;95204.56;;;29.49;46.29
52957;BME280;38819;42.692;23.342;2023-06-24T11:14:33;95205.13;;;29.67;46.07
52957;BME280;38819;42.692;23.342;2023-06-24T11:17:03;95207.81;;;29.74;44.84
52957;BME280;38819;42.692;23.342;2023-06-24T11:19:31;95204.25;;;29.74;44.39
52957;BME280;38819;42.692;23.342;2023-06-24T11:22:00;95207.03;;;29.74;44.00
52957;BME280;38819;42.692;23.342;2023-06-24T11:24:26;95209.00;;;29.73;44.37
52957;BME280;38819;42.692;23.342;2023-06-24T11:26:51;95209.38;;;29.79;44.81
52957;BME280;38819;42.692;23.342;2023-06-24T11:29:17;95210.84;;;29.87;43.33
52957;BME280;38819;42.692;23.342;2023-06-24T11:31:44;95209.56;;;29.96;42.15
52957;BME280;38819;42.692;23.342;2023-06-24T11:34:09;95217.47;;;29.97;42.24
52957;BME280;38819;42.692;23.342;2023-06-24T11:36:35;95209.06;;;30.01;43.05
52957;BME280;38819;42.692;23.342;2023-06-24T11:39:01;95204.28;;;30.01;41.01
52957;BME280;38819;42.692;23.342;2023-06-24T11:41:26;95195.31;;;30.17;42.07
52957;BME280;38819;42.692;23.342;2023-06-24T11:43:53;95194.44;;;30.20;41.35
52957;BME280;38819;42.692;23.342;2023-06-24T11:46:24;95195.88;;;30.05;41.67
52957;BME280;38819;42.692;23.342;2023-06-24T11:48:50;95186.75;;;30.04;43.01
52957;BME280;38819;42.692;23.342;2023-06-24T11:51:16;95190.41;;;29.98;43.69
52957;BME280;38819;42.692;23.342;2023-06-24T11:53:41;95181.66;;;29.99;42.82
52957;BME280;38819;42.692;23.342;2023-06-24T11:56:08;95171.59;;;30.05;42.28
52957;BME280;38819;42.692;23.342;2023-06-24T11:58:34;95170.97;;;29.94;42.13
52957;BME280;38819;42.692;23.342;2023-06-24T12:01:00;95176.03;;;30.03;42.49
52957;BME280;38819;42.692;23.342;2023-06-24T12:03:27;95161.50;;;30.15;43.13
52957;BME280;38819;42.692;23.342;2023-06-24T12:05:52;95159.69;;;30.05;44.53
52957;BME280;38819;42.692;23.342;2023-06-24T12:08:18;95153.69;;;30.06;44.46
52957;BME280;38819;42.692;23.342;2023-06-24T12:10:43;95138.94;;;30.09;42.91
52957;BME280;38819;42.692;23.342;2023-06-24T12:13:08;95140.94;;;30.09;42.76
52957;BME280;38819;42.692;23.342;2023-06-24T12:15:34;95134.06;;;30.14;43.31
52957;BME280;38819;42.692;23.342;2023-06-24T12:18:00;95133.22;;;30.17;43.67
52957;BME280;38819;42.692;23.342;2023-06-24T12:20:28;95143.81;;;30.25;43.63
52957;BME280;38819;42.692;23.342;2023-06-24T12:22:54;95143.47;;;30.23;43.81
52957;BME280;38819;42.692;23.342;2023-06-24T12:25:20;95137.28;;;30.12;43.62
52957;BME280;38819;42.692;23.342;2023-06-24T12:27:46;95136.25;;;30.02;43.68
52957;BME280;38819;42.692;23.342;2023-06-24T12:30:12;95130.78;;;29.95;43.36
52957;BME280;38819;42.692;23.342;2023-06-24T12:32:37;95130.84;;;29.91;43.45
52957;BME280;38819;42.692;23.342;2023-06-24T12:35:02;95128.38;;;29.97;43.80
52957;BME280;38819;42.692;23.342;2023-06-24T12:37:31;95134.97;;;30.07;43.75
52957;BME280;38819;42.692;23.342;2023-06-24T12:39:57;95139.28;;;30.11;44.86
52957;BME280;38819;42.692;23.342;2023-06-24T12:42:23;95143.94;;;30.18;45.26
52957;BME280;38819;42.692;23.342;2023-06-24T12:44:48;95154.66;;;30.20;44.82
52957;BME280;38819;42.692;23.342;2023-06-24T12:47:13;95177.25;;;30.25;44.27
52957;BME280;38819;42.692;23.342;2023-06-24T12:49:39;95180.03;;;30.25;45.40
52957;BME280;38819;42.692;23.342;2023-06-24T12:52:04;95195.63;;;30.23;45.54
52957;BME280;38819;42.692;23.342;2023-06-24T12:54:29;95192.56;;;30.14;45.11
52957;BME280;38819;42.692;23.342;2023-06-24T12:56:54;95200.41;;;30.22;45.62
52957;BME280;38819;42.692;23.342;2023-06-24T12:59:20;95206.63;;;30.30;45.60
52957;BME280;38819;42.692;23.342;2023-06-24T13:01:45;95194.94;;;30.15;46.22
52957;BME280;38819;42.692;23.342;2023-06-24T13:04:11;95192.06;;;30.22;45.58
52957;BME280;38819;42.692;23.342;2023-06-24T13:06:36;95175.28;;;30.26;46.38
52957;BME280;38819;42.692;23.342;2023-06-24T13:09:01;95174.09;;;30.23;46.35
52957;BME280;38819;42.692;23.342;2023-06-24T13:11:27;95167.50;;;30.14;46.09